createdAt,value
2023-05-07T00:01:47.247Z,13.47
2023-05-07T00:05:12.455Z,13.46
2023-05-07T00:08:37.560Z,13.47
2023-05-07T00:12:02.818Z,13.48
2023-05-07T00:15:28.035Z,13.5
2023-05-07T00:18:53.290Z,13.58
2023-05-07T00:22:18.464Z,13.63
2023-05-07T00:25:43.683Z,13.67
2023-05-07T00:29:08.908Z,13.69
2023-05-07T00:32:34.136Z,13.7
2023-05-07T00:35:59.603Z,13.63
2023-05-07T00:39:24.778Z,13.5
2023-05-07T00:42:50.030Z,13.36
2023-05-07T00:46:15.245Z,13.25
2023-05-07T00:49:40.409Z,13.16
2023-05-07T00:53:05.763Z,13.1
2023-05-07T00:56:30.862Z,13.04
2023-05-07T00:59:56.091Z,13.02
2023-05-07T01:03:21.297Z,13.01
2023-05-07T01:06:46.509Z,12.98
2023-05-07T01:10:12.004Z,12.93
2023-05-07T01:13:36.935Z,12.9
2023-05-07T01:17:02.213Z,12.87
2023-05-07T01:20:27.352Z,12.85
2023-05-07T01:23:52.572Z,12.87
2023-05-07T01:27:17.861Z,12.94
2023-05-07T01:30:43.032Z,13.01
2023-05-07T01:34:08.253Z,13.09
2023-05-07T01:37:33.475Z,13.14
2023-05-07T01:40:58.660Z,13.2
2023-05-07T01:44:23.932Z,13.24
2023-05-07T01:47:49.176Z,13.25
2023-05-07T01:51:14.294Z,13.27
2023-05-07T01:54:39.494Z,13.27
2023-05-07T01:58:04.711Z,13.26
2023-05-07T02:01:30.074Z,13.26
2023-05-07T02:04:55.125Z,13.27
2023-05-07T02:08:20.679Z,13.25
2023-05-07T02:11:45.838Z,13.24
2023-05-07T02:15:11.053Z,13.17
2023-05-07T02:18:36.353Z,13.04
2023-05-07T02:22:01.447Z,12.95
2023-05-07T02:25:26.663Z,12.88
2023-05-07T02:28:51.878Z,12.82
2023-05-07T02:32:17.094Z,12.78
2023-05-07T02:35:42.377Z,12.75
2023-05-07T02:39:07.502Z,12.74
2023-05-07T02:42:32.731Z,12.7
2023-05-07T02:45:58.014Z,12.61
2023-05-07T02:49:23.103Z,12.56
2023-05-07T02:52:48.404Z,12.57
2023-05-07T02:56:13.514Z,12.6
2023-05-07T02:59:38.725Z,12.61
2023-05-07T03:03:03.969Z,12.6
2023-05-07T03:06:29.146Z,12.53
2023-05-07T03:09:54.448Z,12.4
2023-05-07T03:13:19.650Z,12.36
2023-05-07T03:16:44.830Z,12.32
2023-05-07T03:20:10.965Z,12.27
2023-05-07T03:23:35.186Z,12.25
2023-05-07T03:27:00.522Z,12.26
2023-05-07T03:30:25.617Z,12.29
2023-05-07T03:33:50.786Z,12.29
2023-05-07T03:37:16.015Z,12.21
2023-05-07T03:40:41.227Z,12.15
2023-05-07T03:44:06.459Z,12.1
2023-05-07T03:47:31.611Z,12.06
2023-05-07T03:50:56.817Z,12.05
2023-05-07T03:54:21.990Z,12.04
2023-05-07T03:57:47.212Z,12.03
2023-05-07T04:01:12.499Z,12.04
2023-05-07T04:04:37.560Z,12.08
2023-05-07T04:08:02.753Z,12.11
2023-05-07T04:11:27.949Z,12.12
2023-05-07T04:14:53.118Z,12.11
2023-05-07T04:18:18.325Z,12.14
2023-05-07T04:21:43.505Z,12.18
2023-05-07T04:25:08.722Z,12.23
2023-05-07T04:28:33.964Z,12.31
2023-05-07T04:31:59.167Z,12.42
2023-05-07T04:35:24.439Z,12.45
2023-05-07T04:38:49.499Z,12.4
2023-05-07T04:42:14.701Z,12.39
2023-05-07T04:45:39.888Z,12.36
2023-05-07T04:49:05.105Z,12.32
2023-05-07T04:52:30.331Z,12.28
2023-05-07T04:55:55.499Z,12.29
2023-05-07T04:59:20.654Z,12.31
2023-05-07T05:02:45.977Z,12.33
2023-05-07T05:06:11.051Z,12.33
2023-05-07T05:09:36.265Z,12.34
2023-05-07T05:13:01.412Z,12.38
2023-05-07T05:16:26.601Z,12.41
2023-05-07T05:19:51.766Z,12.43
2023-05-07T05:23:16.932Z,12.41
2023-05-07T05:26:42.208Z,12.37
2023-05-07T05:30:07.286Z,12.32
2023-05-07T05:33:32.460Z,12.32
2023-05-07T05:36:57.637Z,12.31
2023-05-07T05:40:22.830Z,12.31
2023-05-07T05:43:48.034Z,12.29
2023-05-07T05:47:13.216Z,12.19
2023-05-07T05:50:38.429Z,12.11
2023-05-07T05:54:03.670Z,12.07
2023-05-07T05:57:29.017Z,12.01
2023-05-07T06:00:54.145Z,11.99
2023-05-07T06:04:19.227Z,12.02
2023-05-07T06:07:44.446Z,12.02
2023-05-07T06:11:09.692Z,12.02
2023-05-07T06:14:34.853Z,11.98
2023-05-07T06:18:00.203Z,11.96
2023-05-07T06:21:25.250Z,11.96
2023-05-07T06:24:50.424Z,11.99
2023-05-07T06:28:15.571Z,12.05
2023-05-07T06:31:40.833Z,12.06
2023-05-07T06:35:06.022Z,12.09
2023-05-07T06:38:31.088Z,12.17
2023-05-07T06:41:56.258Z,12.28
2023-05-07T06:45:21.409Z,12.34
2023-05-07T06:48:46.564Z,12.37
2023-05-07T06:52:11.818Z,12.37
2023-05-07T06:55:36.876Z,12.42
2023-05-07T06:59:02.000Z,12.46
2023-05-07T07:02:27.136Z,12.44
2023-05-07T07:05:52.231Z,12.46
2023-05-07T07:09:17.462Z,12.43
2023-05-07T07:12:42.597Z,12.43
2023-05-07T07:16:08.425Z,12.43
2023-05-07T07:19:33.546Z,12.42
2023-05-07T07:22:58.662Z,12.42
2023-05-07T07:26:23.957Z,12.39
2023-05-07T07:29:49.022Z,12.4
2023-05-07T07:33:14.198Z,12.43
2023-05-07T07:36:45.921Z,12.49
2023-05-07T07:40:04.585Z,12.62
2023-05-07T07:43:29.916Z,12.77
2023-05-07T07:46:54.996Z,12.88
2023-05-07T07:50:32.039Z,13.01
2023-05-07T07:53:45.359Z,13.17
2023-05-07T07:57:10.635Z,13.25
2023-05-07T08:00:35.862Z,13.34
2023-05-07T08:04:01.235Z,13.48
2023-05-07T08:07:26.240Z,13.53
2023-05-07T08:10:51.476Z,13.6
2023-05-07T08:14:16.708Z,13.63
2023-05-07T08:17:41.976Z,13.69
2023-05-07T08:21:07.183Z,13.73
2023-05-07T08:24:32.403Z,13.82
2023-05-07T08:27:57.582Z,13.97
2023-05-07T08:31:22.839Z,14.09
2023-05-07T08:34:48.062Z,14.12
2023-05-07T08:38:13.162Z,14.11
2023-05-07T08:41:38.329Z,14.19
2023-05-07T08:45:03.596Z,14.23
2023-05-07T08:48:28.708Z,14.34
2023-05-07T08:51:53.853Z,14.34
2023-05-07T08:55:19.008Z,14.34
2023-05-07T08:58:44.133Z,14.45
2023-05-07T09:02:09.939Z,14.57
2023-05-07T09:05:34.581Z,14.6
2023-05-07T09:08:59.797Z,14.65
2023-05-07T09:12:24.959Z,14.71
2023-05-07T09:15:50.188Z,14.84
2023-05-07T09:19:15.402Z,14.91
2023-05-07T09:22:40.653Z,14.99
2023-05-07T09:26:07.008Z,15.09
2023-05-07T09:29:31.154Z,15.15
2023-05-07T09:32:56.393Z,15.22
2023-05-07T09:36:21.602Z,15.29
2023-05-07T09:39:46.876Z,15.45
2023-05-07T09:43:12.274Z,15.73
2023-05-07T09:46:37.376Z,15.99
2023-05-07T09:50:02.648Z,16.290001
2023-05-07T09:53:27.923Z,16.66
2023-05-07T09:56:53.166Z,16.91
2023-05-07T10:00:18.561Z,16.969999
2023-05-07T10:03:43.764Z,17.08
2023-05-07T10:07:08.838Z,17.02
2023-05-07T10:10:34.067Z,16.959999
2023-05-07T10:13:59.414Z,16.92
2023-05-07T10:17:24.958Z,16.950001
2023-05-07T10:20:49.892Z,17.110001
2023-05-07T10:24:15.120Z,17.24
2023-05-07T10:27:40.385Z,17.360001
2023-05-07T10:31:05.641Z,17.43
2023-05-07T10:34:31.018Z,17.629999
2023-05-07T10:37:56.163Z,17.83
2023-05-07T10:41:21.422Z,17.940001
2023-05-07T10:44:46.722Z,18.02
2023-05-07T10:48:27.758Z,18.040001
2023-05-07T10:51:37.311Z,18.02
2023-05-07T10:55:02.388Z,17.879999
2023-05-07T10:58:31.767Z,17.700001
2023-05-07T11:01:52.960Z,17.559999
2023-05-07T11:05:18.220Z,17.440001
2023-05-07T11:08:43.464Z,17.469999
2023-05-07T11:12:08.598Z,17.639999
2023-05-07T11:15:33.831Z,17.700001
2023-05-07T11:18:59.036Z,17.68
2023-05-07T11:22:24.303Z,17.620001
2023-05-07T11:25:49.709Z,17.709999
2023-05-07T11:29:15.010Z,17.76
2023-05-07T11:32:40.317Z,17.84
2023-05-07T11:36:06.326Z,17.84
2023-05-07T11:39:31.564Z,17.77
2023-05-07T11:42:57.058Z,17.690001
2023-05-07T11:46:22.183Z,17.610001
2023-05-07T11:49:47.288Z,17.629999
2023-05-07T11:53:13.936Z,17.610001
2023-05-07T11:56:37.746Z,17.559999
2023-05-07T12:00:03.009Z,17.549999
2023-05-07T12:03:30.408Z,17.57
2023-05-07T12:06:53.403Z,17.629999
2023-05-07T12:10:18.648Z,17.700001
2023-05-07T12:13:43.853Z,17.76
2023-05-07T12:17:09.150Z,17.719999
2023-05-07T12:20:34.257Z,17.799999
2023-05-07T12:23:59.469Z,17.83
2023-05-07T12:27:24.663Z,17.879999
2023-05-07T12:30:49.884Z,17.93
2023-05-07T12:34:15.103Z,18.030001
2023-05-07T12:37:40.362Z,18
2023-05-07T12:41:05.581Z,18.01
2023-05-07T12:44:30.896Z,18.040001
2023-05-07T12:47:56.164Z,18.08
2023-05-07T12:51:21.460Z,18.129999
2023-05-07T12:54:46.691Z,18.129999
2023-05-07T12:58:11.901Z,18.120001
2023-05-07T13:01:37.237Z,18.030001
2023-05-07T13:05:02.527Z,18.01
2023-05-07T13:08:27.748Z,18.02
2023-05-07T13:11:52.967Z,18.059999
2023-05-07T13:15:18.224Z,18.110001
2023-05-07T13:18:43.534Z,18.120001
2023-05-07T13:22:08.723Z,18.07
2023-05-07T13:25:34.059Z,18.1
2023-05-07T13:28:59.245Z,18.17
2023-05-07T13:32:24.520Z,18.18
2023-05-07T13:35:49.682Z,18.190001
2023-05-07T13:39:14.907Z,18.16
2023-05-07T13:42:40.160Z,18.110001
2023-05-07T13:46:05.501Z,18.049999
2023-05-07T13:49:30.712Z,17.940001
2023-05-07T13:52:55.907Z,17.809999
2023-05-07T13:56:21.111Z,17.690001
2023-05-07T13:59:46.362Z,17.6
2023-05-07T14:03:11.631Z,17.549999
2023-05-07T14:06:36.657Z,17.530001
2023-05-07T14:10:01.859Z,17.57
2023-05-07T14:13:27.145Z,17.59
2023-05-07T14:16:52.281Z,17.559999
2023-05-07T14:20:17.339Z,17.5
2023-05-07T14:23:42.490Z,17.540001
2023-05-07T14:27:07.636Z,17.549999
2023-05-07T14:30:32.822Z,17.540001
2023-05-07T14:33:58.004Z,17.48
2023-05-07T14:37:23.175Z,17.41
2023-05-07T14:40:48.361Z,17.4
2023-05-07T14:44:13.570Z,17.4
2023-05-07T14:47:38.772Z,17.35
2023-05-07T14:51:04.005Z,17.379999
2023-05-07T14:54:29.208Z,17.4
2023-05-07T14:57:54.444Z,17.370001
2023-05-07T15:01:19.686Z,17.32
2023-05-07T15:04:45.245Z,17.24
2023-05-07T15:08:10.440Z,17.16
2023-05-07T15:44:40.588Z,14.27
2023-05-07T15:48:05.748Z,15.15
2023-05-07T15:51:30.927Z,15.37
2023-05-07T15:54:56.179Z,15.56
2023-05-07T15:58:21.396Z,15.68
2023-05-07T16:01:46.724Z,15.73
2023-05-07T16:05:12.081Z,15.77
2023-05-07T16:08:37.005Z,15.8
2023-05-07T16:12:02.224Z,15.85
2023-05-07T16:15:27.378Z,15.82
2023-05-07T16:18:52.609Z,15.81
2023-05-07T16:22:17.765Z,15.78
2023-05-07T16:25:42.952Z,15.74
2023-05-07T16:29:08.140Z,15.66
2023-05-07T16:32:33.375Z,15.57
2023-05-07T16:35:58.556Z,15.53
2023-05-07T16:39:23.722Z,15.45
2023-05-07T16:42:48.902Z,15.38
2023-05-07T16:46:14.252Z,15.29
2023-05-07T16:49:39.354Z,15.26
2023-05-07T16:53:04.687Z,15.24
2023-05-07T16:56:29.734Z,15.24
2023-05-07T16:59:54.898Z,15.17
2023-05-07T17:03:20.313Z,15.08
2023-05-07T17:06:45.272Z,15.05
2023-05-07T17:10:10.549Z,15
2023-05-07T17:13:35.783Z,14.94
2023-05-07T17:17:00.967Z,14.88
2023-05-07T17:20:26.237Z,14.84
2023-05-07T17:23:51.433Z,14.79
2023-05-07T17:27:16.718Z,14.74
2023-05-07T17:30:41.908Z,14.7
2023-05-07T17:34:07.157Z,14.69
2023-05-07T17:37:32.367Z,14.7
2023-05-07T17:40:57.567Z,14.69
2023-05-07T17:44:22.867Z,14.68
2023-05-07T17:47:48.124Z,14.64
2023-05-07T17:51:13.309Z,14.63
2023-05-07T17:54:38.479Z,14.56
2023-05-07T17:58:03.703Z,14.53
2023-05-07T18:01:28.970Z,14.52
2023-05-07T18:04:54.120Z,14.45
2023-05-07T18:08:19.349Z,14.41
2023-05-07T18:11:44.507Z,14.37
2023-05-07T18:15:10.150Z,14.32
2023-05-07T18:18:35.337Z,14.31
2023-05-07T18:22:00.410Z,14.25
2023-05-07T18:25:25.537Z,14.23
2023-05-07T18:28:50.667Z,14.19
2023-05-07T18:32:15.939Z,14.11
2023-05-07T18:35:41.030Z,14.03
2023-05-07T18:39:06.206Z,13.98
2023-05-07T18:42:31.915Z,13.89
2023-05-07T18:45:56.580Z,13.83
2023-05-07T18:49:21.673Z,13.77
2023-05-07T18:52:46.843Z,13.71
2023-05-07T18:56:11.975Z,13.66
2023-05-07T18:59:37.104Z,13.61
2023-05-07T19:03:02.293Z,13.6
2023-05-07T19:06:27.436Z,13.64
2023-05-07T19:10:03.983Z,13.63
2023-05-07T19:13:17.752Z,13.57
2023-05-07T19:16:42.966Z,13.49
2023-05-07T19:23:33.148Z,13.33
2023-05-07T19:26:58.294Z,13.23
2023-05-07T19:30:23.411Z,13.17
2023-05-07T19:33:48.556Z,13.1
2023-05-07T19:37:13.702Z,13.03
2023-05-07T19:40:38.852Z,13
2023-05-07T19:44:04.020Z,12.96
2023-05-07T19:47:29.167Z,12.92
2023-05-07T19:50:54.322Z,12.88
2023-05-07T19:54:19.464Z,12.82
2023-05-07T19:57:44.626Z,12.75
2023-05-07T20:01:09.824Z,12.67
2023-05-07T20:04:34.918Z,12.62
2023-05-07T20:08:00.057Z,12.59
2023-05-07T20:11:25.227Z,12.56
2023-05-07T20:14:50.376Z,12.53
2023-05-07T20:18:15.572Z,12.51
2023-05-07T20:21:40.710Z,12.47
2023-05-07T20:25:05.873Z,12.46
2023-05-07T20:28:31.013Z,12.43
2023-05-07T20:31:56.171Z,12.4
2023-05-07T20:35:21.339Z,12.37
2023-05-07T20:38:46.442Z,12.33
2023-05-07T20:42:11.609Z,12.3
2023-05-07T20:45:36.809Z,12.29
2023-05-07T20:49:01.941Z,12.28
2023-05-07T20:52:27.195Z,12.26
2023-05-07T20:55:52.280Z,12.25
2023-05-07T20:59:17.415Z,12.26
2023-05-07T21:02:42.609Z,12.27
2023-05-07T21:06:07.759Z,12.27
2023-05-07T21:09:32.947Z,12.25
2023-05-07T21:12:58.123Z,12.27
2023-05-07T21:16:23.304Z,12.28
2023-05-07T21:19:48.424Z,12.28
2023-05-07T21:23:13.598Z,12.29
2023-05-07T21:26:38.804Z,12.25
2023-05-07T21:30:03.949Z,12.24
2023-05-07T21:33:29.098Z,12.23
2023-05-07T21:36:54.233Z,12.26
2023-05-07T21:40:19.372Z,12.29
2023-05-07T21:43:44.546Z,12.31
2023-05-07T21:47:09.694Z,12.31
2023-05-07T21:50:34.840Z,12.3
2023-05-07T21:53:59.971Z,12.29
2023-05-07T21:57:25.139Z,12.3
2023-05-07T22:00:50.328Z,12.3
2023-05-07T22:04:15.432Z,12.3
2023-05-07T22:07:40.623Z,12.31
2023-05-07T22:11:05.771Z,12.28
2023-05-07T22:14:30.915Z,12.29
2023-05-07T22:17:56.124Z,12.28
2023-05-07T22:21:21.172Z,12.29
2023-05-07T22:24:46.322Z,12.27
2023-05-07T22:28:11.476Z,12.29
2023-05-07T22:31:36.683Z,12.29
2023-05-07T22:35:01.816Z,12.28
2023-05-07T22:38:26.936Z,12.27
2023-05-07T22:41:52.081Z,12.24
2023-05-07T22:45:17.229Z,12.19
2023-05-07T22:48:42.380Z,12.14
2023-05-07T22:52:07.555Z,12.11
2023-05-07T22:55:32.696Z,12.06
2023-05-07T22:58:57.852Z,12.03
2023-05-07T23:02:23.230Z,11.95
2023-05-07T23:05:48.168Z,11.84
2023-05-07T23:09:13.347Z,11.74
2023-05-07T23:12:38.518Z,11.66
2023-05-07T23:16:03.665Z,11.63
2023-05-07T23:19:28.883Z,11.62
2023-05-07T23:22:53.952Z,11.59
2023-05-07T23:26:19.356Z,11.58
2023-05-07T23:29:44.470Z,11.63
2023-05-07T23:33:09.689Z,11.67
2023-05-07T23:36:34.816Z,11.68
2023-05-07T23:40:00.059Z,11.7
2023-05-07T23:43:25.243Z,11.72
2023-05-07T23:46:50.358Z,11.75
2023-05-07T23:50:15.604Z,11.78
2023-05-07T23:53:40.684Z,11.85
2023-05-07T23:57:05.824Z,11.86
